sensor_id;sensor_type;location;lat;lon;timestamp;P1;durP1;ratioP1;P2;durP2;ratioP2
26106;SDS011;13866;50.748;12.630;2024-01-10T00:01:13;44.80;;;26.70;;
26106;SDS011;13866;50.748;12.630;2024-01-10T00:03:39;50.67;;;27.53;;
26106;SDS011;13866;50.748;12.630;2024-01-10T00:06:04;42.10;;;23.93;;
26106;SDS011;13866;50.748;12.630;2024-01-10T00:08:30;47.20;;;26.65;;
26106;SDS011;13866;50.748;12.630;2024-01-10T00:10:56;50.87;;;27.57;;
26106;SDS011;13866;50.748;12.630;2024-01-10T00:13:21;44.50;;;27.50;;
26106;SDS011;13866;50.748;12.630;2024-01-10T00:15:47;48.70;;;27.63;;
26106;SDS011;13866;50.748;12.630;2024-01-10T00:18:14;39.75;;;25.65;;
26106;SDS011;13866;50.748;12.630;2024-01-10T00:20:39;35.00;;;25.50;;
26106;SDS011;13866;50.748;12.630;2024-01-10T00:23:05;37.37;;;26.67;;
26106;SDS011;13866;50.748;12.630;2024-01-10T00:25:34;51.17;;;26.73;;
26106;SDS011;13866;50.748;12.630;2024-01-10T00:27:59;48.73;;;30.43;;
26106;SDS011;13866;50.748;12.630;2024-01-10T00:30:25;45.47;;;26.53;;
26106;SDS011;13866;50.748;12.630;2024-01-10T00:32:50;49.70;;;29.20;;
26106;SDS011;13866;50.748;12.630;2024-01-10T00:35:16;44.27;;;28.97;;
26106;SDS011;13866;50.748;12.630;2024-01-10T00:37:41;48.47;;;26.70;;
26106;SDS011;13866;50.748;12.630;2024-01-10T00:40:07;50.57;;;28.23;;
26106;SDS011;13866;50.748;12.630;2024-01-10T00:42:33;46.33;;;27.73;;
26106;SDS011;13866;50.748;12.630;2024-01-10T00:44:58;52.27;;;28.87;;
26106;SDS011;13866;50.748;12.630;2024-01-10T00:47:24;45.10;;;27.07;;
26106;SDS011;13866;50.748;12.630;2024-01-10T00:49:49;40.60;;;26.17;;
26106;SDS011;13866;50.748;12.630;2024-01-10T00:52:15;41.50;;;26.83;;
26106;SDS011;13866;50.748;12.630;2024-01-10T00:54:40;47.87;;;26.60;;
26106;SDS011;13866;50.748;12.630;2024-01-10T00:57:06;43.07;;;26.83;;
26106;SDS011;13866;50.748;12.630;2024-01-10T00:59:31;46.07;;;27.43;;
26106;SDS011;13866;50.748;12.630;2024-01-10T01:01:57;47.67;;;26.97;;
26106;SDS011;13866;50.748;12.630;2024-01-10T01:04:22;58.20;;;27.17;;
26106;SDS011;13866;50.748;12.630;2024-01-10T01:06:48;37.60;;;25.83;;
26106;SDS011;13866;50.748;12.630;2024-01-10T01:09:13;40.57;;;25.77;;
26106;SDS011;13866;50.748;12.630;2024-01-10T01:11:40;44.95;;;26.48;;
26106;SDS011;13866;50.748;12.630;2024-01-10T01:14:06;43.50;;;26.10;;
26106;SDS011;13866;50.748;12.630;2024-01-10T01:16:31;42.33;;;24.87;;
26106;SDS011;13866;50.748;12.630;2024-01-10T01:18:57;41.60;;;24.90;;
26106;SDS011;13866;50.748;12.630;2024-01-10T01:21:22;35.20;;;24.00;;
26106;SDS011;13866;50.748;12.630;2024-01-10T01:23:48;38.07;;;24.13;;
26106;SDS011;13866;50.748;12.630;2024-01-10T01:26:13;49.93;;;25.90;;
26106;SDS011;13866;50.748;12.630;2024-01-10T01:28:39;38.70;;;24.90;;
26106;SDS011;13866;50.748;12.630;2024-01-10T01:31:05;46.60;;;27.97;;
26106;SDS011;13866;50.748;12.630;2024-01-10T01:33:30;42.70;;;26.17;;
26106;SDS011;13866;50.748;12.630;2024-01-10T01:35:56;39.13;;;25.23;;
26106;SDS011;13866;50.748;12.630;2024-01-10T01:38:21;38.50;;;25.03;;
26106;SDS011;13866;50.748;12.630;2024-01-10T01:40:47;41.53;;;26.27;;
26106;SDS011;13866;50.748;12.630;2024-01-10T01:43:19;41.90;;;25.93;;
26106;SDS011;13866;50.748;12.630;2024-01-10T01:45:47;50.95;;;27.55;;
26106;SDS011;13866;50.748;12.630;2024-01-10T01:48:16;43.08;;;26.50;;
26106;SDS011;13866;50.748;12.630;2024-01-10T01:50:43;40.92;;;21.70;;
26106;SDS011;13866;50.748;12.630;2024-01-10T01:53:10;47.83;;;27.15;;
26106;SDS011;13866;50.748;12.630;2024-01-10T01:55:37;44.92;;;28.77;;
26106;SDS011;13866;50.748;12.630;2024-01-10T01:58:03;51.03;;;27.00;;
26106;SDS011;13866;50.748;12.630;2024-01-10T02:00:28;52.47;;;27.67;;
26106;SDS011;13866;50.748;12.630;2024-01-10T02:02:55;46.00;;;27.40;;
26106;SDS011;13866;50.748;12.630;2024-01-10T02:05:23;40.03;;;27.23;;
26106;SDS011;13866;50.748;12.630;2024-01-10T02:07:50;45.15;;;27.58;;
26106;SDS011;13866;50.748;12.630;2024-01-10T02:10:15;39.10;;;25.37;;
26106;SDS011;13866;50.748;12.630;2024-01-10T02:12:41;40.07;;;26.17;;
26106;SDS011;13866;50.748;12.630;2024-01-10T02:15:06;40.67;;;27.83;;
26106;SDS011;13866;50.748;12.630;2024-01-10T02:17:32;42.50;;;25.80;;
26106;SDS011;13866;50.748;12.630;2024-01-10T02:20:13;40.13;;;24.80;;
26106;SDS011;13866;50.748;12.630;2024-01-10T02:22:43;43.35;;;26.92;;
26106;SDS011;13866;50.748;12.630;2024-01-10T02:25:09;45.03;;;25.60;;
26106;SDS011;13866;50.748;12.630;2024-01-10T02:27:36;42.30;;;25.50;;
26106;SDS011;13866;50.748;12.630;2024-01-10T02:30:03;43.50;;;26.58;;
26106;SDS011;13866;50.748;12.630;2024-01-10T02:32:29;44.65;;;26.33;;
26106;SDS011;13866;50.748;12.630;2024-01-10T02:34:55;43.33;;;27.70;;
26106;SDS011;13866;50.748;12.630;2024-01-10T02:37:20;48.70;;;29.00;;
26106;SDS011;13866;50.748;12.630;2024-01-10T02:39:46;43.53;;;26.87;;
26106;SDS011;13866;50.748;12.630;2024-01-10T02:42:11;50.63;;;27.57;;
26106;SDS011;13866;50.748;12.630;2024-01-10T02:44:37;52.60;;;28.80;;
26106;SDS011;13866;50.748;12.630;2024-01-10T02:47:02;50.03;;;27.80;;
26106;SDS011;13866;50.748;12.630;2024-01-10T02:49:28;45.43;;;27.10;;
26106;SDS011;13866;50.748;12.630;2024-01-10T02:51:54;52.63;;;28.70;;
26106;SDS011;13866;50.748;12.630;2024-01-10T02:54:19;57.20;;;28.27;;
26106;SDS011;13866;50.748;12.630;2024-01-10T02:56:45;48.47;;;27.30;;
26106;SDS011;13866;50.748;12.630;2024-01-10T02:59:10;38.97;;;27.37;;
26106;SDS011;13866;50.748;12.630;2024-01-10T03:01:36;46.53;;;28.10;;
26106;SDS011;13866;50.748;12.630;2024-01-10T03:04:01;51.10;;;26.80;;
26106;SDS011;13866;50.748;12.630;2024-01-10T03:06:27;47.53;;;27.83;;
26106;SDS011;13866;50.748;12.630;2024-01-10T03:08:54;52.83;;;28.30;;
26106;SDS011;13866;50.748;12.630;2024-01-10T03:11:20;48.88;;;29.25;;
26106;SDS011;13866;50.748;12.630;2024-01-10T03:13:46;54.53;;;28.30;;
26106;SDS011;13866;50.748;12.630;2024-01-10T03:16:12;48.47;;;28.63;;
26106;SDS011;13866;50.748;12.630;2024-01-10T03:18:38;50.37;;;28.70;;
26106;SDS011;13866;50.748;12.630;2024-01-10T03:21:04;47.23;;;26.50;;
26106;SDS011;13866;50.748;12.630;2024-01-10T03:23:29;47.97;;;28.27;;
26106;SDS011;13866;50.748;12.630;2024-01-10T03:25:58;44.33;;;27.07;;
26106;SDS011;13866;50.748;12.630;2024-01-10T03:28:23;39.38;;;24.40;;
26106;SDS011;13866;50.748;12.630;2024-01-10T03:30:49;49.07;;;28.80;;
26106;SDS011;13866;50.748;12.630;2024-01-10T03:33:14;43.00;;;24.83;;
26106;SDS011;13866;50.748;12.630;2024-01-10T03:35:40;45.90;;;25.37;;
26106;SDS011;13866;50.748;12.630;2024-01-10T03:38:06;41.75;;;26.38;;
26106;SDS011;13866;50.748;12.630;2024-01-10T03:40:32;50.83;;;26.67;;
26106;SDS011;13866;50.748;12.630;2024-01-10T03:42:57;50.10;;;29.43;;
26106;SDS011;13866;50.748;12.630;2024-01-10T03:45:23;47.67;;;26.77;;
26106;SDS011;13866;50.748;12.630;2024-01-10T03:47:49;52.47;;;27.57;;
26106;SDS011;13866;50.748;12.630;2024-01-10T03:50:16;44.95;;;28.58;;
26106;SDS011;13866;50.748;12.630;2024-01-10T03:52:43;45.08;;;27.08;;
26106;SDS011;13866;50.748;12.630;2024-01-10T03:55:09;44.07;;;26.17;;
26106;SDS011;13866;50.748;12.630;2024-01-10T03:57:35;43.50;;;26.27;;
26106;SDS011;13866;50.748;12.630;2024-01-10T04:00:00;45.53;;;28.10;;
26106;SDS011;13866;50.748;12.630;2024-01-10T04:02:26;39.33;;;25.53;;
26106;SDS011;13866;50.748;12.630;2024-01-10T04:04:52;36.40;;;25.23;;
26106;SDS011;13866;50.748;12.630;2024-01-10T04:07:18;44.90;;;27.97;;
26106;SDS011;13866;50.748;12.630;2024-01-10T04:09:44;47.47;;;27.10;;
26106;SDS011;13866;50.748;12.630;2024-01-10T04:12:10;51.27;;;26.80;;
26106;SDS011;13866;50.748;12.630;2024-01-10T04:14:35;48.73;;;26.60;;
26106;SDS011;13866;50.748;12.630;2024-01-10T04:17:01;47.63;;;25.00;;
26106;SDS011;13866;50.748;12.630;2024-01-10T04:19:28;39.30;;;27.38;;
26106;SDS011;13866;50.748;12.630;2024-01-10T04:21:53;45.67;;;26.57;;
26106;SDS011;13866;50.748;12.630;2024-01-10T04:24:19;43.87;;;26.37;;
26106;SDS011;13866;50.748;12.630;2024-01-10T04:26:44;56.60;;;25.40;;
26106;SDS011;13866;50.748;12.630;2024-01-10T04:29:10;43.10;;;27.10;;
26106;SDS011;13866;50.748;12.630;2024-01-10T04:31:36;46.03;;;27.63;;
26106;SDS011;13866;50.748;12.630;2024-01-10T04:34:02;42.55;;;26.08;;
26106;SDS011;13866;50.748;12.630;2024-01-10T04:36:27;40.40;;;26.87;;
26106;SDS011;13866;50.748;12.630;2024-01-10T04:38:53;42.93;;;26.67;;
26106;SDS011;13866;50.748;12.630;2024-01-10T04:41:18;47.87;;;26.37;;
26106;SDS011;13866;50.748;12.630;2024-01-10T04:43:44;50.77;;;26.70;;
26106;SDS011;13866;50.748;12.630;2024-01-10T04:46:09;50.67;;;25.03;;
26106;SDS011;13866;50.748;12.630;2024-01-10T04:48:35;39.10;;;25.10;;
26106;SDS011;13866;50.748;12.630;2024-01-10T04:51:01;47.00;;;27.08;;
26106;SDS011;13866;50.748;12.630;2024-01-10T04:53:27;45.40;;;26.90;;
26106;SDS011;13866;50.748;12.630;2024-01-10T04:55:52;35.37;;;23.00;;
26106;SDS011;13866;50.748;12.630;2024-01-10T04:58:18;50.37;;;25.67;;
26106;SDS011;13866;50.748;12.630;2024-01-10T05:00:43;41.30;;;23.90;;
26106;SDS011;13866;50.748;12.630;2024-01-10T05:03:08;35.63;;;23.93;;
26106;SDS011;13866;50.748;12.630;2024-01-10T05:05:34;37.10;;;25.10;;
26106;SDS011;13866;50.748;12.630;2024-01-10T05:07:59;44.40;;;25.57;;
26106;SDS011;13866;50.748;12.630;2024-01-10T05:10:26;47.88;;;26.95;;
26106;SDS011;13866;50.748;12.630;2024-01-10T05:12:52;37.65;;;24.58;;
26106;SDS011;13866;50.748;12.630;2024-01-10T05:15:18;38.53;;;24.37;;
26106;SDS011;13866;50.748;12.630;2024-01-10T05:17:44;39.83;;;23.80;;
26106;SDS011;13866;50.748;12.630;2024-01-10T05:20:09;42.00;;;25.77;;
26106;SDS011;13866;50.748;12.630;2024-01-10T05:22:35;50.87;;;27.10;;
26106;SDS011;13866;50.748;12.630;2024-01-10T05:25:00;40.63;;;24.10;;
26106;SDS011;13866;50.748;12.630;2024-01-10T05:27:26;52.27;;;28.97;;
26106;SDS011;13866;50.748;12.630;2024-01-10T05:29:52;46.13;;;25.23;;
26106;SDS011;13866;50.748;12.630;2024-01-10T05:32:17;54.60;;;28.00;;
26106;SDS011;13866;50.748;12.630;2024-01-10T05:34:44;44.10;;;28.00;;
26106;SDS011;13866;50.748;12.630;2024-01-10T05:37:09;50.38;;;28.15;;
26106;SDS011;13866;50.748;12.630;2024-01-10T05:39:35;39.63;;;23.87;;
26106;SDS011;13866;50.748;12.630;2024-01-10T05:42:00;56.87;;;29.87;;
26106;SDS011;13866;50.748;12.630;2024-01-10T05:44:27;46.63;;;27.33;;
26106;SDS011;13866;50.748;12.630;2024-01-10T05:46:53;53.73;;;29.30;;
26106;SDS011;13866;50.748;12.630;2024-01-10T05:49:19;42.17;;;26.17;;
26106;SDS011;13866;50.748;12.630;2024-01-10T05:51:47;50.33;;;29.85;;
26106;SDS011;13866;50.748;12.630;2024-01-10T05:54:12;52.63;;;29.60;;
26106;SDS011;13866;50.748;12.630;2024-01-10T05:56:37;43.67;;;27.90;;
26106;SDS011;13866;50.748;12.630;2024-01-10T05:59:03;49.93;;;27.90;;
26106;SDS011;13866;50.748;12.630;2024-01-10T06:01:29;52.03;;;28.40;;
26106;SDS011;13866;50.748;12.630;2024-01-10T06:03:54;43.70;;;25.47;;
26106;SDS011;13866;50.748;12.630;2024-01-10T06:06:19;47.23;;;28.87;;
26106;SDS011;13866;50.748;12.630;2024-01-10T06:08:45;46.27;;;26.20;;
26106;SDS011;13866;50.748;12.630;2024-01-10T06:11:10;40.57;;;26.13;;
26106;SDS011;13866;50.748;12.630;2024-01-10T06:13:36;44.20;;;26.47;;
26106;SDS011;13866;50.748;12.630;2024-01-10T06:16:02;40.77;;;27.07;;
26106;SDS011;13866;50.748;12.630;2024-01-10T06:18:29;36.72;;;26.42;;
26106;SDS011;13866;50.748;12.630;2024-01-10T06:20:54;37.93;;;26.47;;
26106;SDS011;13866;50.748;12.630;2024-01-10T06:23:20;41.97;;;24.63;;
26106;SDS011;13866;50.748;12.630;2024-01-10T06:25:45;45.70;;;27.50;;
26106;SDS011;13866;50.748;12.630;2024-01-10T06:28:11;49.50;;;27.70;;
26106;SDS011;13866;50.748;12.630;2024-01-10T06:30:36;37.93;;;25.60;;
26106;SDS011;13866;50.748;12.630;2024-01-10T06:33:01;49.40;;;28.37;;
26106;SDS011;13866;50.748;12.630;2024-01-10T06:35:27;49.87;;;25.63;;
26106;SDS011;13866;50.748;12.630;2024-01-10T06:37:53;52.27;;;28.30;;
26106;SDS011;13866;50.748;12.630;2024-01-10T06:40:18;38.63;;;25.83;;
26106;SDS011;13866;50.748;12.630;2024-01-10T06:42:46;43.42;;;27.77;;
26106;SDS011;13866;50.748;12.630;2024-01-10T06:45:12;42.83;;;27.38;;
26106;SDS011;13866;50.748;12.630;2024-01-10T06:47:38;45.07;;;27.17;;
26106;SDS011;13866;50.748;12.630;2024-01-10T06:50:03;48.63;;;28.50;;
26106;SDS011;13866;50.748;12.630;2024-01-10T06:52:30;48.78;;;29.70;;
26106;SDS011;13866;50.748;12.630;2024-01-10T06:54:56;54.63;;;28.40;;
26106;SDS011;13866;50.748;12.630;2024-01-10T06:57:22;51.47;;;28.60;;
26106;SDS011;13866;50.748;12.630;2024-01-10T06:59:50;49.07;;;28.50;;
26106;SDS011;13866;50.748;12.630;2024-01-10T07:02:15;44.78;;;28.38;;
26106;SDS011;13866;50.748;12.630;2024-01-10T07:04:42;45.63;;;28.45;;
26106;SDS011;13866;50.748;12.630;2024-01-10T07:07:07;52.97;;;28.70;;
26106;SDS011;13866;50.748;12.630;2024-01-10T07:09:33;48.03;;;28.90;;
26106;SDS011;13866;50.748;12.630;2024-01-10T07:11:59;39.43;;;27.43;;
26106;SDS011;13866;50.748;12.630;2024-01-10T07:14:24;45.83;;;26.70;;
26106;SDS011;13866;50.748;12.630;2024-01-10T07:16:50;45.40;;;28.50;;
26106;SDS011;13866;50.748;12.630;2024-01-10T07:19:16;40.38;;;26.13;;
26106;SDS011;13866;50.748;12.630;2024-01-10T07:21:42;44.87;;;28.33;;
26106;SDS011;13866;50.748;12.630;2024-01-10T07:24:08;54.00;;;30.40;;
26106;SDS011;13866;50.748;12.630;2024-01-10T07:26:35;46.83;;;27.75;;
26106;SDS011;13866;50.748;12.630;2024-01-10T07:29:01;43.25;;;28.52;;
26106;SDS011;13866;50.748;12.630;2024-01-10T07:31:27;55.03;;;30.30;;
26106;SDS011;13866;50.748;12.630;2024-01-10T07:33:54;41.55;;;28.05;;
26106;SDS011;13866;50.748;12.630;2024-01-10T07:36:25;48.28;;;28.85;;
26106;SDS011;13866;50.748;12.630;2024-01-10T07:38:55;48.58;;;27.98;;
26106;SDS011;13866;50.748;12.630;2024-01-10T07:41:22;41.42;;;26.55;;
26106;SDS011;13866;50.748;12.630;2024-01-10T07:43:47;49.77;;;27.37;;
26106;SDS011;13866;50.748;12.630;2024-01-10T07:46:13;49.90;;;29.50;;
26106;SDS011;13866;50.748;12.630;2024-01-10T07:48:38;47.70;;;28.60;;
26106;SDS011;13866;50.748;12.630;2024-01-10T07:51:04;42.00;;;29.47;;
26106;SDS011;13866;50.748;12.630;2024-01-10T07:53:30;44.03;;;27.97;;
26106;SDS011;13866;50.748;12.630;2024-01-10T07:55:55;52.80;;;29.63;;
26106;SDS011;13866;50.748;12.630;2024-01-10T07:58:21;53.88;;;32.15;;
26106;SDS011;13866;50.748;12.630;2024-01-10T08:00:47;42.60;;;26.30;;
26106;SDS011;13866;50.748;12.630;2024-01-10T08:03:12;45.30;;;28.43;;
26106;SDS011;13866;50.748;12.630;2024-01-10T08:05:38;57.43;;;33.97;;
26106;SDS011;13866;50.748;12.630;2024-01-10T08:08:03;61.30;;;34.37;;
26106;SDS011;13866;50.748;12.630;2024-01-10T08:10:29;51.20;;;32.37;;
26106;SDS011;13866;50.748;12.630;2024-01-10T08:12:54;47.33;;;31.77;;
26106;SDS011;13866;50.748;12.630;2024-01-10T08:15:21;58.92;;;31.80;;
26106;SDS011;13866;50.748;12.630;2024-01-10T08:17:47;53.87;;;31.70;;
26106;SDS011;13866;50.748;12.630;2024-01-10T08:20:13;51.87;;;30.77;;
26106;SDS011;13866;50.748;12.630;2024-01-10T08:22:40;51.88;;;31.42;;
26106;SDS011;13866;50.748;12.630;2024-01-10T08:25:05;54.30;;;31.73;;
26106;SDS011;13866;50.748;12.630;2024-01-10T08:27:31;49.17;;;30.70;;
26106;SDS011;13866;50.748;12.630;2024-01-10T08:29:58;48.05;;;30.92;;
26106;SDS011;13866;50.748;12.630;2024-01-10T08:32:24;50.50;;;29.80;;
26106;SDS011;13866;50.748;12.630;2024-01-10T08:34:49;48.33;;;29.73;;
26106;SDS011;13866;50.748;12.630;2024-01-10T08:37:15;57.67;;;32.10;;
26106;SDS011;13866;50.748;12.630;2024-01-10T08:39:42;52.72;;;32.50;;
26106;SDS011;13866;50.748;12.630;2024-01-10T08:42:09;61.00;;;33.85;;
26106;SDS011;13866;50.748;12.630;2024-01-10T08:44:35;54.17;;;31.50;;
26106;SDS011;13866;50.748;12.630;2024-01-10T08:47:00;66.27;;;32.00;;
26106;SDS011;13866;50.748;12.630;2024-01-10T08:49:26;60.33;;;32.03;;
26106;SDS011;13866;50.748;12.630;2024-01-10T08:51:51;54.07;;;31.43;;
26106;SDS011;13866;50.748;12.630;2024-01-10T08:54:18;50.05;;;29.95;;
26106;SDS011;13866;50.748;12.630;2024-01-10T08:56:45;66.03;;;33.67;;
26106;SDS011;13866;50.748;12.630;2024-01-10T08:59:11;61.63;;;34.15;;
26106;SDS011;13866;50.748;12.630;2024-01-10T09:01:37;54.78;;;32.65;;
26106;SDS011;13866;50.748;12.630;2024-01-10T09:04:06;62.08;;;35.03;;
26106;SDS011;13866;50.748;12.630;2024-01-10T09:06:32;68.20;;;37.73;;
26106;SDS011;13866;50.748;12.630;2024-01-10T09:08:58;65.77;;;34.43;;
26106;SDS011;13866;50.748;12.630;2024-01-10T09:11:24;58.33;;;33.80;;
26106;SDS011;13866;50.748;12.630;2024-01-10T09:13:50;62.23;;;35.90;;
26106;SDS011;13866;50.748;12.630;2024-01-10T09:16:16;60.85;;;35.35;;
26106;SDS011;13866;50.748;12.630;2024-01-10T09:18:43;58.92;;;35.92;;
26106;SDS011;13866;50.748;12.630;2024-01-10T09:21:09;55.93;;;36.03;;
26106;SDS011;13866;50.748;12.630;2024-01-10T09:23:35;67.80;;;35.73;;
26106;SDS011;13866;50.748;12.630;2024-01-10T09:26:00;58.57;;;34.50;;
26106;SDS011;13866;50.748;12.630;2024-01-10T09:28:26;62.50;;;36.13;;
26106;SDS011;13866;50.748;12.630;2024-01-10T09:30:51;70.00;;;37.50;;
26106;SDS011;13866;50.748;12.630;2024-01-10T09:33:17;67.47;;;38.93;;
26106;SDS011;13866;50.748;12.630;2024-01-10T09:35:42;69.70;;;41.90;;
26106;SDS011;13866;50.748;12.630;2024-01-10T09:38:08;69.87;;;39.57;;
26106;SDS011;13866;50.748;12.630;2024-01-10T09:40:33;72.43;;;42.60;;
26106;SDS011;13866;50.748;12.630;2024-01-10T09:42:59;72.53;;;40.17;;
26106;SDS011;13866;50.748;12.630;2024-01-10T09:45:24;68.30;;;43.00;;
26106;SDS011;13866;50.748;12.630;2024-01-10T09:47:55;55.80;;;37.95;;
26106;SDS011;13866;50.748;12.630;2024-01-10T09:50:21;66.80;;;39.80;;
26106;SDS011;13866;50.748;12.630;2024-01-10T09:52:51;54.30;;;34.50;;
26106;SDS011;13866;50.748;12.630;2024-01-10T09:55:19;63.08;;;35.13;;
26106;SDS011;13866;50.748;12.630;2024-01-10T09:57:46;54.35;;;33.97;;
26106;SDS011;13866;50.748;12.630;2024-01-10T10:00:11;58.27;;;33.60;;
26106;SDS011;13866;50.748;12.630;2024-01-10T10:02:40;59.33;;;32.90;;
26106;SDS011;13866;50.748;12.630;2024-01-10T10:05:13;57.45;;;33.05;;
26106;SDS011;13866;50.748;12.630;2024-01-10T10:07:44;52.78;;;33.05;;
26106;SDS011;13866;50.748;12.630;2024-01-10T10:10:11;56.38;;;35.40;;
26106;SDS011;13866;50.748;12.630;2024-01-10T10:15:19;60.78;;;34.33;;
26106;SDS011;13866;50.748;12.630;2024-01-10T10:17:47;67.78;;;35.53;;
26106;SDS011;13866;50.748;12.630;2024-01-10T10:22:59;60.53;;;34.88;;
26106;SDS011;13866;50.748;12.630;2024-01-10T10:25:28;52.95;;;33.63;;
26106;SDS011;13866;50.748;12.630;2024-01-10T10:27:58;54.85;;;33.85;;
26106;SDS011;13866;50.748;12.630;2024-01-10T10:30:25;66.55;;;37.42;;
26106;SDS011;13866;50.748;12.630;2024-01-10T10:32:51;69.35;;;35.13;;
26106;SDS011;13866;50.748;12.630;2024-01-10T10:35:18;54.03;;;32.83;;
26106;SDS011;13866;50.748;12.630;2024-01-10T10:37:44;62.17;;;35.35;;
26106;SDS011;13866;50.748;12.630;2024-01-10T10:40:10;58.67;;;34.07;;
26106;SDS011;13866;50.748;12.630;2024-01-10T10:42:36;55.70;;;35.90;;
26106;SDS011;13866;50.748;12.630;2024-01-10T10:45:08;62.88;;;35.97;;
26106;SDS011;13866;50.748;12.630;2024-01-10T10:47:37;59.38;;;33.50;;
26106;SDS011;13866;50.748;12.630;2024-01-10T10:50:08;55.45;;;34.22;;
26106;SDS011;13866;50.748;12.630;2024-01-10T10:52:41;69.00;;;31.63;;
26106;SDS011;13866;50.748;12.630;2024-01-10T10:55:12;54.50;;;33.65;;
26106;SDS011;13866;50.748;12.630;2024-01-10T10:57:41;59.63;;;37.65;;
26106;SDS011;13866;50.748;12.630;2024-01-10T11:00:14;75.60;;;39.60;;
26106;SDS011;13866;50.748;12.630;2024-01-10T11:02:41;56.22;;;37.30;;
26106;SDS011;13866;50.748;12.630;2024-01-10T11:05:08;59.90;;;36.60;;
26106;SDS011;13866;50.748;12.630;2024-01-10T11:07:40;58.85;;;37.70;;
26106;SDS011;13866;50.748;12.630;2024-01-10T11:10:10;52.35;;;32.03;;
26106;SDS011;13866;50.748;12.630;2024-01-10T11:18:53;61.05;;;35.35;;
26106;SDS011;13866;50.748;12.630;2024-01-10T11:21:33;57.28;;;34.30;;
26106;SDS011;13866;50.748;12.630;2024-01-10T11:24:18;59.50;;;34.65;;
26106;SDS011;13866;50.748;12.630;2024-01-10T11:26:45;65.50;;;35.58;;
26106;SDS011;13866;50.748;12.630;2024-01-10T11:29:10;60.95;;;35.85;;
26106;SDS011;13866;50.748;12.630;2024-01-10T11:31:36;61.13;;;35.57;;
26106;SDS011;13866;50.748;12.630;2024-01-10T11:34:03;54.22;;;32.92;;
26106;SDS011;13866;50.748;12.630;2024-01-10T11:36:29;50.40;;;31.23;;
26106;SDS011;13866;50.748;12.630;2024-01-10T11:38:57;46.20;;;31.77;;
26106;SDS011;13866;50.748;12.630;2024-01-10T11:41:28;57.53;;;32.63;;
26106;SDS011;13866;50.748;12.630;2024-01-10T11:46:39;59.80;;;34.38;;
26106;SDS011;13866;50.748;12.630;2024-01-10T11:49:08;61.58;;;36.08;;
26106;SDS011;13866;50.748;12.630;2024-01-10T11:51:37;59.25;;;35.38;;
26106;SDS011;13866;50.748;12.630;2024-01-10T11:54:03;61.50;;;35.33;;
26106;SDS011;13866;50.748;12.630;2024-01-10T11:56:38;57.50;;;35.50;;
26106;SDS011;13866;50.748;12.630;2024-01-10T11:59:09;56.55;;;34.70;;
26106;SDS011;13866;50.748;12.630;2024-01-10T12:01:36;65.70;;;36.20;;
26106;SDS011;13866;50.748;12.630;2024-01-10T12:04:03;61.00;;;35.65;;
26106;SDS011;13866;50.748;12.630;2024-01-10T12:06:29;57.05;;;34.92;;
26106;SDS011;13866;50.748;12.630;2024-01-10T12:09:01;63.90;;;37.30;;
26106;SDS011;13866;50.748;12.630;2024-01-10T12:11:29;59.95;;;37.20;;
26106;SDS011;13866;50.748;12.630;2024-01-10T12:13:55;69.97;;;38.30;;
26106;SDS011;13866;50.748;12.630;2024-01-10T12:16:21;56.80;;;36.37;;
26106;SDS011;13866;50.748;12.630;2024-01-10T12:18:48;58.47;;;36.35;;
26106;SDS011;13866;50.748;12.630;2024-01-10T12:21:14;61.70;;;37.10;;
26106;SDS011;13866;50.748;12.630;2024-01-10T12:23:39;55.67;;;35.97;;
26106;SDS011;13866;50.748;12.630;2024-01-10T12:26:07;67.25;;;36.55;;
26106;SDS011;13866;50.748;12.630;2024-01-10T12:28:39;62.88;;;38.10;;
26106;SDS011;13866;50.748;12.630;2024-01-10T12:31:05;70.25;;;38.20;;
26106;SDS011;13866;50.748;12.630;2024-01-10T12:33:33;60.50;;;36.95;;
26106;SDS011;13866;50.748;12.630;2024-01-10T12:36:03;64.15;;;37.08;;
26106;SDS011;13866;50.748;12.630;2024-01-10T12:38:29;62.15;;;36.30;;
26106;SDS011;13866;50.748;12.630;2024-01-10T12:40:56;64.45;;;38.72;;
26106;SDS011;13866;50.748;12.630;2024-01-10T12:43:22;69.95;;;40.50;;
26106;SDS011;13866;50.748;12.630;2024-01-10T12:45:47;62.97;;;38.50;;
26106;SDS011;13866;50.748;12.630;2024-01-10T12:48:13;58.70;;;34.63;;
26106;SDS011;13866;50.748;12.630;2024-01-10T12:50:42;60.97;;;38.08;;
26106;SDS011;13866;50.748;12.630;2024-01-10T12:53:09;55.83;;;37.60;;
26106;SDS011;13866;50.748;12.630;2024-01-10T12:55:34;66.63;;;38.80;;
26106;SDS011;13866;50.748;12.630;2024-01-10T12:58:00;71.70;;;39.77;;
26106;SDS011;13866;50.748;12.630;2024-01-10T13:00:29;67.90;;;40.65;;
26106;SDS011;13866;50.748;12.630;2024-01-10T13:02:54;63.00;;;38.87;;
26106;SDS011;13866;50.748;12.630;2024-01-10T13:05:20;63.23;;;37.53;;
26106;SDS011;13866;50.748;12.630;2024-01-10T13:07:45;69.53;;;39.00;;
26106;SDS011;13866;50.748;12.630;2024-01-10T13:10:11;71.00;;;41.63;;
26106;SDS011;13866;50.748;12.630;2024-01-10T13:12:37;72.80;;;40.10;;
26106;SDS011;13866;50.748;12.630;2024-01-10T13:15:02;82.87;;;39.23;;
26106;SDS011;13866;50.748;12.630;2024-01-10T13:17:29;77.30;;;39.97;;
26106;SDS011;13866;50.748;12.630;2024-01-10T13:19:55;57.93;;;36.57;;
26106;SDS011;13866;50.748;12.630;2024-01-10T13:22:20;64.03;;;38.73;;
26106;SDS011;13866;50.748;12.630;2024-01-10T13:24:46;68.43;;;39.40;;
26106;SDS011;13866;50.748;12.630;2024-01-10T13:27:12;64.07;;;39.03;;
26106;SDS011;13866;50.748;12.630;2024-01-10T13:29:37;72.32;;;38.90;;
26106;SDS011;13866;50.748;12.630;2024-01-10T13:32:03;59.23;;;38.87;;
26106;SDS011;13866;50.748;12.630;2024-01-10T13:34:29;66.75;;;39.45;;
26106;SDS011;13866;50.748;12.630;2024-01-10T13:36:55;60.03;;;37.70;;
26106;SDS011;13866;50.748;12.630;2024-01-10T13:39:20;70.07;;;39.73;;
26106;SDS011;13866;50.748;12.630;2024-01-10T13:41:46;69.53;;;40.53;;
26106;SDS011;13866;50.748;12.630;2024-01-10T13:44:11;70.70;;;39.00;;
26106;SDS011;13866;50.748;12.630;2024-01-10T13:46:37;66.27;;;38.20;;
26106;SDS011;13866;50.748;12.630;2024-01-10T13:49:02;60.07;;;37.10;;
26106;SDS011;13866;50.748;12.630;2024-01-10T13:51:28;60.60;;;38.50;;
26106;SDS011;13866;50.748;12.630;2024-01-10T13:53:53;64.40;;;36.50;;
26106;SDS011;13866;50.748;12.630;2024-01-10T13:56:19;66.90;;;38.40;;
26106;SDS011;13866;50.748;12.630;2024-01-10T13:58:47;62.60;;;36.78;;
26106;SDS011;13866;50.748;12.630;2024-01-10T14:01:13;64.90;;;37.13;;
26106;SDS011;13866;50.748;12.630;2024-01-10T14:03:39;57.17;;;35.53;;
26106;SDS011;13866;50.748;12.630;2024-01-10T14:06:04;49.50;;;32.97;;
26106;SDS011;13866;50.748;12.630;2024-01-10T14:08:30;56.60;;;34.47;;
26106;SDS011;13866;50.748;12.630;2024-01-10T14:10:56;51.60;;;35.10;;
26106;SDS011;13866;50.748;12.630;2024-01-10T14:13:21;60.37;;;37.37;;
26106;SDS011;13866;50.748;12.630;2024-01-10T14:15:48;53.03;;;34.03;;
26106;SDS011;13866;50.748;12.630;2024-01-10T14:18:13;57.63;;;35.63;;